Time;durP1;ratioP1;P1;durP2;ratioP2;P2;SDS_P1;SDS_P2;PMS_P1;PMS_P2;Temp;Humidity;BMP_temperature;BMP_pressure;BME280_temperature;BME280_humidity;BME280_pressure;Samples;Min_cycle;Max_cycle;Signal;HPM_P1;HPM_P2
2023/08/21 00:00:55;;;;;;;0.00;0.00;;;;;;;16.35;93.22;101136.03;5016832;28;20063;-72
2023/08/21 00:03:21;;;;;;;0.00;0.00;;;;;;;16.37;93.12;101136.56;5015419;28;20036;-77
2023/08/21 00:05:46;;;;;;;0.00;0.00;;;;;;;16.38;93.30;101138.22;5066073;28;20103;-77
2023/08/21 00:08:12;;;;;;;0.00;0.00;;;;;;;16.36;93.78;101135.72;5037378;28;20167;-75
2023/08/21 00:10:38;;;;;;;0.00;0.00;;;;;;;16.38;93.92;101140.97;5020459;28;20039;-77
2023/08/21 00:13:04;;;;;;;0.00;0.00;;;;;;;16.35;93.76;101125.81;5043913;28;20025;-76
2023/08/21 00:15:30;;;;;;;0.00;0.00;;;;;;;16.35;93.96;101130.50;5013146;28;20052;-74
2023/08/21 00:17:55;;;;;;;0.00;0.00;;;;;;;16.38;93.65;101140.97;5023339;28;20020;-75
2023/08/21 00:20:20;;;;;;;0.00;0.00;;;;;;;16.40;94.41;101139.56;5057459;28;20410;-73
2023/08/21 00:22:46;;;;;;;0.00;0.00;;;;;;;16.42;93.94;101136.53;5030969;28;20032;-73
2023/08/21 00:25:11;;;;;;;0.00;0.00;;;;;;;16.44;94.30;101128.78;5061226;28;20021;-74
2023/08/21 00:27:37;;;;;;;0.00;0.00;;;;;;;16.52;94.00;101138.38;5033688;28;20029;-74
2023/08/21 00:30:03;;;;;;;0.00;0.00;;;;;;;16.51;93.84;101134.78;5044639;28;20433;-73
2023/08/21 00:32:28;;;;;;;0.00;0.00;;;;;;;16.52;94.02;101139.19;5024831;28;20475;-74
2023/08/21 00:34:54;;;;;;;0.00;0.00;;;;;;;16.56;93.94;101140.28;5034193;28;20048;-75
2023/08/21 00:37:19;;;;;;;0.00;0.00;;;;;;;16.58;94.30;101146.31;5039547;28;20029;-74
2023/08/21 00:39:45;;;;;;;0.00;0.00;;;;;;;16.55;94.34;101135.84;5021154;28;20063;-74
2023/08/21 00:42:10;;;;;;;0.00;0.00;;;;;;;16.57;94.21;101132.81;5023073;28;20036;-75
2023/08/21 00:44:38;;;;;;;0.00;0.00;;;;;;;16.54;94.34;101128.72;5022584;28;20024;-75
2023/08/21 00:47:04;;;;;;;0.00;0.00;;;;;;;16.51;94.43;101128.44;5015644;28;20128;-75
2023/08/21 00:49:30;;;;;;;0.00;0.00;;;;;;;16.56;94.33;101143.03;5036173;28;20115;-73
2023/08/21 00:51:56;;;;;;;0.00;0.00;;;;;;;16.55;94.68;101138.63;5048681;28;20016;-74
2023/08/21 00:54:22;;;;;;;0.00;0.00;;;;;;;16.50;94.66;101133.16;5036931;28;20060;-74
2023/08/21 00:56:53;;;;;;;0.00;0.00;;;;;;;16.44;94.57;101123.28;5062771;28;20138;-73
2023/08/21 00:59:22;;;;;;;0.00;0.00;;;;;;;16.47;95.19;101133.72;5029207;28;20433;-75
2023/08/21 01:01:47;;;;;;;0.00;0.00;;;;;;;16.48;95.09;101135.38;5049495;28;20039;-75
2023/08/21 01:04:13;;;;;;;0.00;0.00;;;;;;;16.48;95.30;101135.38;5053462;28;20029;-74
2023/08/21 01:06:41;;;;;;;0.00;0.00;;;;;;;16.39;95.40;101126.06;5019608;28;20029;-75
2023/08/21 01:09:19;;;;;;;0.00;0.00;;;;;;;16.45;95.42;101135.13;5034953;28;20450;-75
2023/08/21 01:12:18;;;;;;;0.00;0.00;;;;;;;16.37;95.80;101144.84;5049745;28;20033;-75
2023/08/21 01:15:05;;;;;;;0.00;0.00;;;;;;;16.32;96.30;101144.88;5034413;28;20510;-74
2023/08/21 01:17:37;;;;;;;0.00;0.00;;;;;;;16.28;95.99;101130.00;5043868;28;20123;-75
2023/08/21 01:20:04;;;;;;;0.00;0.00;;;;;;;16.33;96.00;101139.06;5037718;28;20061;-73
2023/08/21 01:22:37;;;;;;;0.00;0.00;;;;;;;16.37;95.86;101142.09;5026612;28;20047;-73
2023/08/21 01:25:05;;;;;;;0.00;0.00;;;;;;;16.42;95.99;101144.81;5051333;28;20074;-74
2023/08/21 01:27:30;;;;;;;0.00;0.00;;;;;;;16.42;95.83;101142.03;5021434;28;20952;-74
2023/08/21 01:29:56;;;;;;;0.00;0.00;;;;;;;16.33;95.78;101138.25;5020116;28;20115;-74
2023/08/21 01:33:05;;;;;;;0.00;0.00;;;;;;;16.39;95.92;101145.38;5031615;28;20028;-74
2023/08/21 01:35:35;;;;;;;0.00;0.00;;;;;;;16.40;95.71;101147.03;5028178;28;20051;-74
2023/08/21 01:38:04;;;;;;;0.00;0.00;;;;;;;16.33;95.87;101132.75;5026221;28;20028;-75
2023/08/21 01:40:30;;;;;;;0.00;0.00;;;;;;;16.34;96.17;101137.13;5033243;28;20029;-74
2023/08/21 01:42:55;;;;;;;0.00;0.00;;;;;;;16.30;95.90;101136.88;5031411;28;20051;-74
2023/08/21 01:45:22;;;;;;;0.00;0.00;;;;;;;16.30;96.37;101138.84;5025665;28;20040;-75
2023/08/21 01:47:50;;;;;;;0.00;0.00;;;;;;;16.23;96.61;101133.63;5037354;28;20029;-75
2023/08/21 01:50:16;;;;;;;0.00;0.00;;;;;;;16.23;96.43;101134.44;5027871;28;20063;-75
2023/08/21 01:52:42;;;;;;;0.00;0.00;;;;;;;16.22;96.50;101130.06;5017558;28;20079;-76
2023/08/21 01:55:07;;;;;;;0.00;0.00;;;;;;;16.11;96.88;101113.88;5020807;28;20040;-77
2023/08/21 01:57:33;;;;;;;0.00;0.00;;;;;;;16.25;96.82;101131.41;5013347;28;20033;-74
2023/08/21 01:59:59;;;;;;;0.00;0.00;;;;;;;16.25;96.73;101136.09;5039319;28;20017;-74
2023/08/21 02:02:24;;;;;;;0.00;0.00;;;;;;;16.26;96.72;101137.75;5037746;28;20040;-76
2023/08/21 02:04:49;;;;;;;0.00;0.00;;;;;;;16.22;96.70;101141.09;5029382;28;20047;-76
2023/08/21 02:07:15;;;;;;;0.00;0.00;;;;;;;16.22;96.70;101141.09;5046101;28;20099;-74
2023/08/21 02:09:40;;;;;;;0.00;0.00;;;;;;;16.18;96.62;101141.97;5022882;28;20041;-74
2023/08/21 02:12:06;;;;;;;0.00;0.00;;;;;;;16.19;96.70;101143.59;5020234;28;20077;-75
2023/08/21 02:14:31;;;;;;;0.00;0.00;;;;;;;16.17;96.68;101138.34;5010173;28;20025;-74
2023/08/21 02:16:57;;;;;;;0.00;0.00;;;;;;;16.21;96.54;101146.91;5046894;28;20438;-73
2023/08/21 02:19:22;;;;;;;0.00;0.00;;;;;;;16.21;97.00;101146.91;5039794;28;20541;-75
2023/08/21 02:21:47;;;;;;;0.00;0.00;;;;;;;16.17;96.76;101149.41;5028118;28;20560;-73
2023/08/21 02:24:13;;;;;;;0.00;0.00;;;;;;;16.14;96.50;101147.22;5028523;28;20063;-73
2023/08/21 02:26:38;;;;;;;0.00;0.00;;;;;;;16.15;96.86;101153.53;5007896;28;20447;-74
2023/08/21 02:29:04;;;;;;;0.00;0.00;;;;;;;16.15;96.61;101153.53;5034072;28;20032;-74
2023/08/21 02:31:29;;;;;;;0.00;0.00;;;;;;;16.14;96.94;101149.97;5014667;28;20028;-74
2023/08/21 02:33:55;;;;;;;0.00;0.00;;;;;;;16.13;97.04;101148.31;5043379;28;20020;-74
2023/08/21 02:36:23;;;;;;;0.00;0.00;;;;;;;16.06;96.89;101134.00;5038871;28;20036;-74
2023/08/21 02:38:49;;;;;;;0.00;0.00;;;;;;;16.07;96.58;101135.66;5036364;28;20060;-76
2023/08/21 02:41:15;;;;;;;0.00;0.00;;;;;;;16.04;97.42;101144.53;5034939;28;20021;-73
2023/08/21 02:43:40;;;;;;;0.00;0.00;;;;;;;16.03;96.88;101145.63;5036658;28;20436;-74
2023/08/21 02:46:05;;;;;;;0.00;0.00;;;;;;;15.98;97.49;101142.91;5032756;28;20119;-74
2023/08/21 02:48:31;;;;;;;0.00;0.00;;;;;;;15.99;97.56;101145.38;5008364;28;20028;-74
2023/08/21 02:50:56;;;;;;;0.00;0.00;;;;;;;15.95;97.90;101149.00;5028340;28;20032;-75
2023/08/21 02:53:22;;;;;;;0.00;0.00;;;;;;;15.95;97.76;101149.00;5009921;28;20075;-73
2023/08/21 02:55:47;;;;;;;0.00;0.00;;;;;;;15.81;98.36;101126.72;5040954;28;20025;-73
2023/08/21 02:58:12;;;;;;;0.00;0.00;;;;;;;15.91;98.52;101142.41;5054917;28;20024;-74
2023/08/21 03:00:40;;;;;;;0.00;0.00;;;;;;;15.67;98.63;101110.78;5011665;28;20037;-75
2023/08/21 03:03:05;;;;;;;0.00;0.00;;;;;;;15.87;98.62;101145.72;5039749;28;20032;-73
2023/08/21 03:05:31;;;;;;;0.00;0.00;;;;;;;15.91;98.78;101153.44;5002822;28;20029;-73
2023/08/21 03:07:56;;;;;;;0.00;0.00;;;;;;;15.90;98.74;101157.28;5040588;28;20036;-74
2023/08/21 03:10:23;;;;;;;0.00;0.00;;;;;;;15.82;98.82;101145.75;5008529;28;20033;-74
2023/08/21 03:12:49;;;;;;;0.00;0.00;;;;;;;15.86;98.80;101162.56;5024517;28;20087;-73
2023/08/21 03:15:16;;;;;;;0.00;0.00;;;;;;;15.92;99.18;101160.59;5024765;28;20099;-72
2023/08/21 03:17:41;;;;;;;0.00;0.00;;;;;;;15.95;98.72;101168.31;5051020;28;20032;-75
2023/08/21 03:20:07;;;;;;;0.00;0.00;;;;;;;15.98;98.69;101165.78;5038808;28;20052;-74
2023/08/21 03:22:33;;;;;;;0.00;0.00;;;;;;;16.04;97.82;101166.59;5044899;28;20017;-73
2023/08/21 03:24:58;;;;;;;0.00;0.00;;;;;;;16.01;97.90;101151.41;5042312;28;20352;-75
2023/08/21 03:27:25;;;;;;;0.00;0.00;;;;;;;16.05;98.06;101166.31;5035338;28;20029;-74
2023/08/21 03:29:51;;;;;;;0.00;0.00;;;;;;;16.04;97.55;101153.59;5040688;28;20074;-75
2023/08/21 03:32:17;;;;;;;0.00;0.00;;;;;;;16.02;97.70;101152.28;5040780;28;20028;-74
2023/08/21 03:34:43;;;;;;;0.00;0.00;;;;;;;16.07;97.77;101156.94;5058914;28;20025;-73
2023/08/21 03:37:09;;;;;;;0.00;0.00;;;;;;;16.04;97.46;101156.38;5038695;28;20104;-73
2023/08/21 03:39:35;;;;;;;0.00;0.00;;;;;;;16.02;97.89;101152.28;5023564;28;20119;-73
2023/08/21 03:42:00;;;;;;;0.00;0.00;;;;;;;15.92;97.93;101144.06;5044930;28;20158;-73
2023/08/21 03:44:25;;;;;;;0.00;0.00;;;;;;;15.93;97.77;101153.94;5036654;28;20028;-74
2023/08/21 03:46:51;;;;;;;0.00;0.00;;;;;;;15.87;97.87;101147.63;5050485;28;20021;-71
2023/08/21 03:49:16;;;;;;;0.00;0.00;;;;;;;15.89;97.80;101150.94;5047828;28;20039;-75
2023/08/21 03:51:42;;;;;;;0.00;0.00;;;;;;;15.88;98.17;101133.56;5043391;28;20029;-71
2023/08/21 03:54:07;;;;;;;0.00;0.00;;;;;;;15.91;97.68;101145.16;5037723;28;20039;-74
2023/08/21 03:56:32;;;;;;;0.00;0.00;;;;;;;15.96;97.78;101145.09;5039605;28;20059;-74
2023/08/21 03:58:58;;;;;;;0.00;0.00;;;;;;;16.05;97.54;101148.94;5031328;28;20053;-75
2023/08/21 04:01:23;;;;;;;0.00;0.00;;;;;;;16.10;97.05;101146.13;5042484;28;20032;-75
2023/08/21 04:03:49;;;;;;;0.00;0.00;;;;;;;16.14;97.07;101147.22;5014709;28;20020;-74
2023/08/21 04:06:14;;;;;;;0.00;0.00;;;;;;;16.22;96.38;101149.38;5039290;28;20040;-74
2023/08/21 04:08:39;;;;;;;0.00;0.00;;;;;;;16.28;96.47;101141.03;5035716;28;20064;-73
2023/08/21 04:11:06;;;;;;;0.00;0.00;;;;;;;16.32;96.02;101142.13;5048678;28;20029;-73
2023/08/21 04:13:31;;;;;;;0.00;0.00;;;;;;;16.26;95.76;101123.97;5042296;28;20064;-73
2023/08/21 04:15:57;;;;;;;0.00;0.00;;;;;;;16.31;95.53;101141.31;5045475;28;20057;-73
2023/08/21 04:18:23;;;;;;;0.00;0.00;;;;;;;16.37;95.47;101139.34;5011721;28;20391;-73
2023/08/21 04:20:49;;;;;;;0.00;0.00;;;;;;;16.36;95.47;101138.50;5041009;28;20053;-74
2023/08/21 04:23:14;;;;;;;0.00;0.00;;;;;;;16.36;95.41;101132.97;5049324;28;20039;-76
2023/08/21 04:25:39;;;;;;;0.00;0.00;;;;;;;16.38;95.07;101144.56;5025977;28;20498;-74
2023/08/21 04:28:07;;;;;;;0.00;0.00;;;;;;;16.40;95.02;101138.75;5041356;28;20123;-75
2023/08/21 04:30:33;;;;;;;0.00;0.00;;;;;;;16.45;94.43;101137.88;5040836;28;20111;-74
2023/08/21 04:32:59;;;;;;;0.00;0.00;;;;;;;16.43;94.62;101138.19;5044520;28;20550;-74
2023/08/21 04:35:24;;;;;;;0.00;0.00;;;;;;;16.43;94.27;101142.84;5033347;28;20039;-74
2023/08/21 04:37:50;;;;;;;0.00;0.00;;;;;;;16.44;94.30;101148.13;5024270;28;20028;-74
2023/08/21 04:40:17;;;;;;;0.00;0.00;;;;;;;16.41;94.48;101140.38;5041110;28;20031;-74
2023/08/21 04:42:43;;;;;;;0.00;0.00;;;;;;;16.42;94.16;101142.03;5008843;28;20034;-75
2023/08/21 04:45:09;;;;;;;0.00;0.00;;;;;;;16.46;94.02;101145.88;5027902;28;20029;-74
2023/08/21 04:47:34;;;;;;;0.00;0.00;;;;;;;16.42;93.69;101142.03;5057407;28;20035;-75
2023/08/21 04:50:00;;;;;;;0.00;0.00;;;;;;;16.42;93.91;101149.50;5023260;28;20036;-74
2023/08/21 04:52:26;;;;;;;0.00;0.00;;;;;;;16.40;94.02;101155.31;5053101;28;20020;-74
2023/08/21 04:54:52;;;;;;;0.00;0.00;;;;;;;16.38;93.75;101147.31;5027229;28;20121;-75
2023/08/21 04:57:18;;;;;;;0.00;0.00;;;;;;;16.40;93.57;101155.31;5065023;28;20024;-75
2023/08/21 04:59:44;;;;;;;0.00;0.00;;;;;;;16.42;93.43;101155.84;5024765;28;20170;-74
2023/08/21 05:02:09;;;;;;;0.00;0.00;;;;;;;16.40;93.73;101156.13;5049252;28;20029;-75
2023/08/21 05:04:36;;;;;;;0.00;0.00;;;;;;;16.41;93.64;101156.94;5041988;28;20038;-76
2023/08/21 05:07:02;;;;;;;0.00;0.00;;;;;;;16.36;93.54;101155.06;5010859;28;20545;-75
2023/08/21 05:09:28;;;;;;;0.00;0.00;;;;;;;16.36;93.37;101155.06;5033602;28;20035;-74
2023/08/21 05:11:54;;;;;;;0.00;0.00;;;;;;;16.37;93.83;101164.19;5042541;28;20024;-73
2023/08/21 05:14:20;;;;;;;0.00;0.00;;;;;;;16.35;93.36;101166.38;5045313;28;20025;-73
2023/08/21 05:16:46;;;;;;;0.00;0.00;;;;;;;16.28;93.77;101163.97;5040255;28;20074;-74
2023/08/21 05:19:12;;;;;;;0.00;0.00;;;;;;;16.35;93.75;101175.50;5049351;28;20035;-74
2023/08/21 05:21:37;;;;;;;0.00;0.00;;;;;;;16.35;93.59;101163.63;5028400;28;20056;-73
2023/08/21 05:24:02;;;;;;;0.00;0.00;;;;;;;16.34;94.06;101173.00;5027227;28;20698;-74
2023/08/21 05:26:28;;;;;;;0.00;0.00;;;;;;;16.34;93.73;101170.25;5046360;28;20029;-75
2023/08/21 05:28:53;;;;;;;0.00;0.00;;;;;;;16.30;93.74;101172.78;5022982;28;21084;-76
2023/08/21 05:31:21;;;;;;;0.00;0.00;;;;;;;16.28;94.60;101176.91;5034815;28;20459;-75
2023/08/21 05:33:46;;;;;;;0.00;0.00;;;;;;;16.20;94.05;101186.63;5020119;28;20082;-74
2023/08/21 05:36:12;;;;;;;0.00;0.00;;;;;;;16.00;94.77;101174.63;5066043;28;20449;-75
2023/08/21 05:38:37;;;;;;;0.00;0.00;;;;;;;15.84;95.20;101173.88;5035513;28;20029;-74
2023/08/21 05:41:03;;;;;;;0.00;0.00;;;;;;;15.76;95.89;101173.59;5014280;28;20039;-73
2023/08/21 05:43:28;;;;;;;0.00;0.00;;;;;;;15.64;95.63;101171.19;5046673;28;20036;-74
2023/08/21 05:45:54;;;;;;;0.00;0.00;;;;;;;15.58;96.20;101166.78;5045639;28;20027;-74
2023/08/21 05:48:19;;;;;;;0.00;0.00;;;;;;;15.54;96.40;101177.53;5026115;28;20024;-73
2023/08/21 05:50:50;;;;;;;0.00;0.00;;;;;;;15.51;96.59;101178.94;5022548;28;20056;-73
2023/08/21 05:53:15;;;;;;;0.00;0.00;;;;;;;15.48;96.55;101179.50;5033808;28;20422;-74
2023/08/21 05:55:40;;;;;;;0.00;0.00;;;;;;;15.46;96.68;101176.19;5055545;28;20040;-72
2023/08/21 05:58:06;;;;;;;0.00;0.00;;;;;;;15.52;96.59;101180.59;5056924;28;20028;-74
2023/08/21 06:00:33;;;;;;;0.00;0.00;;;;;;;15.61;96.44;101188.25;5029439;28;20051;-73
2023/08/21 06:02:58;;;;;;;0.00;0.00;;;;;;;15.77;96.22;101189.03;5053913;28;20485;-74
2023/08/21 06:05:24;;;;;;;0.00;0.00;;;;;;;15.99;95.49;101184.00;5027432;28;20033;-73
2023/08/21 06:07:50;;;;;;;0.00;0.00;;;;;;;16.19;94.85;101177.53;5041545;28;20106;-74
2023/08/21 06:10:15;;;;;;;0.00;0.00;;;;;;;16.37;94.45;101166.94;5037940;28;20045;-74
2023/08/21 06:12:44;;;;;;;0.00;0.00;;;;;;;16.50;93.83;101174.56;5037995;28;20028;-75
2023/08/21 06:15:10;;;;;;;0.00;0.00;;;;;;;16.60;93.37;101189.38;5053858;28;20040;-75
2023/08/21 06:17:36;;;;;;;0.00;0.00;;;;;;;16.57;92.90;101188.88;5046628;28;20064;-74
2023/08/21 06:20:05;;;;;;;0.00;0.00;;;;;;;16.59;93.53;101185.81;5034424;28;20076;-76
2023/08/21 06:22:31;;;;;;;0.00;0.00;;;;;;;16.78;92.59;101194.22;5061813;28;20024;-73
2023/08/21 06:25:09;;;;;;;0.00;0.00;;;;;;;16.95;92.69;101193.00;5040607;28;20055;-71
2023/08/21 06:27:35;;;;;;;0.00;0.00;;;;;;;17.07;91.58;101190.69;5016572;28;20068;-72
2023/08/21 06:30:08;;;;;;;0.00;0.00;;;;;;;17.02;91.73;101199.00;5032248;28;20040;-72
2023/08/21 06:32:34;;;;;;;0.00;0.00;;;;;;;16.82;91.33;101195.31;5031031;28;20486;-71
2023/08/21 06:34:59;;;;;;;0.00;0.00;;;;;;;16.73;92.49;101199.78;5023434;28;20043;-70
2023/08/21 06:37:25;;;;;;;0.00;0.00;;;;;;;16.78;92.29;101199.75;5051667;28;20751;-71
2023/08/21 06:39:50;;;;;;;0.00;0.00;;;;;;;16.97;91.62;101201.81;5027655;28;20020;-70
2023/08/21 06:42:16;;;;;;;0.00;0.00;;;;;;;17.16;91.17;101194.44;5025900;28;20040;-71
2023/08/21 06:44:41;;;;;;;0.00;0.00;;;;;;;17.31;90.61;101201.75;5036533;28;20115;-75
2023/08/21 06:47:09;;;;;;;0.00;0.00;;;;;;;17.38;89.98;101198.66;5023211;28;20081;-74
2023/08/21 06:49:34;;;;;;;0.00;0.00;;;;;;;17.43;89.40;101204.13;5015307;28;20037;-70
2023/08/21 06:52:02;;;;;;;0.00;0.00;;;;;;;17.49;89.08;101197.41;5039192;28;20102;-71
2023/08/21 06:54:28;;;;;;;0.00;0.00;;;;;;;17.62;88.83;101207.78;5041805;28;20077;-71
2023/08/21 06:56:53;;;;;;;0.00;0.00;;;;;;;17.71;88.37;101204.34;5040542;28;20067;-72
2023/08/21 06:59:19;;;;;;;0.00;0.00;;;;;;;17.83;87.53;101210.28;5011143;28;20029;-71
2023/08/21 07:01:44;;;;;;;0.00;0.00;;;;;;;18.00;87.16;101211.78;5012561;28;20406;-72
2023/08/21 07:04:10;;;;;;;0.00;0.00;;;;;;;18.06;86.29;101210.56;5047551;28;20017;-72
2023/08/21 07:06:35;;;;;;;0.00;0.00;;;;;;;18.10;85.10;101203.31;5026207;28;20356;-72
2023/08/21 07:09:04;;;;;;;0.00;0.00;;;;;;;18.18;85.20;101197.13;5016126;28;20588;-74
2023/08/21 07:11:29;;;;;;;0.00;0.00;;;;;;;18.21;83.94;101202.06;5052302;28;20032;-72
2023/08/21 07:13:55;;;;;;;0.00;0.00;;;;;;;18.27;84.56;101195.31;5042898;28;20111;-72
2023/08/21 07:16:20;;;;;;;0.00;0.00;;;;;;;18.44;84.41;101205.88;5027655;28;20459;-71
2023/08/21 07:18:45;;;;;;;0.00;0.00;;;;;;;18.48;83.61;101203.31;5029772;28;20025;-72
2023/08/21 07:21:11;;;;;;;0.00;0.00;;;;;;;18.62;83.19;101206.97;5021648;28;20037;-74
2023/08/21 07:23:36;;;;;;;0.00;0.00;;;;;;;18.81;82.82;101197.81;5052294;28;20132;-73
2023/08/21 07:26:03;;;;;;;0.00;0.00;;;;;;;19.11;82.30;101202.00;5039665;28;20293;-72
2023/08/21 07:28:29;;;;;;;0.00;0.00;;;;;;;19.17;81.60;101194.44;5042775;28;20029;-74
2023/08/21 07:30:56;;;;;;;0.00;0.00;;;;;;;19.29;80.53;101192.00;5033514;28;20099;-71
2023/08/21 07:33:22;;;;;;;0.00;0.00;;;;;;;19.45;79.63;101188.91;5055095;28;20029;-72
2023/08/21 07:36:08;;;;;;;0.00;0.00;;;;;;;19.58;78.25;101196.44;5024871;28;20025;-74
2023/08/21 07:38:36;;;;;;;0.00;0.00;;;;;;;19.65;77.45;101198.78;5037236;28;20479;-71
2023/08/21 07:41:28;;;;;;;0.00;0.00;;;;;;;19.89;76.46;101198.59;5029964;28;20086;-72
2023/08/21 07:43:54;;;;;;;0.00;0.00;;;;;;;19.93;75.15;101204.34;5056555;28;20040;-71
2023/08/21 07:46:28;;;;;;;0.00;0.00;;;;;;;19.97;74.28;101205.38;5037952;28;20032;-70
2023/08/21 07:48:54;;;;;;;0.00;0.00;;;;;;;19.92;73.64;101203.53;5039797;28;20688;-76
2023/08/21 07:51:19;;;;;;;0.00;0.00;;;;;;;19.88;73.71;101197.75;5027305;28;20029;-75
2023/08/21 07:53:45;;;;;;;0.00;0.00;;;;;;;19.92;73.23;101197.97;5031670;28;20044;-80
2023/08/21 07:56:11;;;;;;;0.00;0.00;;;;;;;19.99;72.96;101192.81;5034564;28;20044;-72
2023/08/21 07:58:37;;;;;;;0.00;0.00;;;;;;;20.09;72.83;101190.94;5010630;28;20086;-72
2023/08/21 08:01:04;;;;;;;0.00;0.00;;;;;;;20.23;71.68;101197.28;5025605;28;20459;-73
2023/08/21 08:03:30;;;;;;;0.00;0.00;;;;;;;20.38;70.55;101199.72;5041177;28;20390;-71
2023/08/21 08:05:55;;;;;;;0.00;0.00;;;;;;;20.49;68.57;101196.69;5048250;28;20028;-73
2023/08/21 08:08:21;;;;;;;0.00;0.00;;;;;;;20.56;68.35;101199.88;5027964;28;20079;-72
2023/08/21 08:10:46;;;;;;;0.00;0.00;;;;;;;20.56;66.98;101199.88;5018825;28;20741;-72
2023/08/21 08:13:12;;;;;;;0.00;0.00;;;;;;;20.73;66.57;101204.75;5027788;28;20120;-73
2023/08/21 08:15:38;;;;;;;0.00;0.00;;;;;;;20.84;66.18;101205.31;5022537;28;20048;-73
2023/08/21 08:18:11;;;;;;;0.00;0.00;;;;;;;20.78;66.26;101201.84;5044994;28;20029;-72
2023/08/21 08:20:36;;;;;;;0.00;0.00;;;;;;;20.72;66.23;101209.50;5045532;28;20045;-72
2023/08/21 08:23:05;;;;;;;0.00;0.00;;;;;;;20.51;66.63;101197.19;5034461;28;20052;-73
2023/08/21 08:25:33;;;;;;;0.00;0.00;;;;;;;20.40;66.96;101196.63;5026629;28;20559;-74
2023/08/21 08:27:58;;;;;;;0.00;0.00;;;;;;;20.17;67.10;101173.56;5065203;28;20032;-72
2023/08/21 08:30:27;;;;;;;0.00;0.00;;;;;;;20.35;67.49;101189.22;5041595;28;20098;-73
2023/08/21 08:32:55;;;;;;;0.00;0.00;;;;;;;20.36;67.43;101201.97;5047099;28;20040;-71
2023/08/21 08:35:21;;;;;;;0.00;0.00;;;;;;;20.27;67.44;101206.66;5039728;28;20024;-70
2023/08/21 08:37:51;;;;;;;0.00;0.00;;;;;;;20.09;67.46;101207.59;5039285;28;21640;-74
2023/08/21 08:40:20;;;;;;;0.00;0.00;;;;;;;19.92;68.12;101192.44;5035082;28;20036;-74
2023/08/21 08:42:45;;;;;;;0.00;0.00;;;;;;;20.10;68.84;101203.72;5039176;28;20024;-72
2023/08/21 08:45:13;;;;;;;0.00;0.00;;;;;;;20.26;68.84;101212.50;5029740;28;20086;-72
2023/08/21 08:47:43;;;;;;;0.00;0.00;;;;;;;20.17;68.57;101215.22;5049421;28;20120;-71
2023/08/21 08:50:09;;;;;;;0.00;0.00;;;;;;;20.08;68.84;101205.94;5034618;28;20108;-72
2023/08/21 08:52:37;;;;;;;0.00;0.00;;;;;;;20.14;69.26;101204.72;5006448;28;20135;-73
2023/08/21 08:55:06;;;;;;;0.00;0.00;;;;;;;20.32;68.65;101216.81;5054981;28;20130;-73
2023/08/21 08:57:32;;;;;;;0.00;0.00;;;;;;;20.47;67.59;101215.63;5050514;28;20127;-74
2023/08/21 09:00:07;;;;;;;0.00;0.00;;;;;;;20.66;66.48;101216.31;5038214;28;20036;-73
2023/08/21 09:02:32;;;;;;;0.00;0.00;;;;;;;20.78;65.58;101217.69;5030878;28;20033;-76
2023/08/21 09:04:58;;;;;;;0.00;0.00;;;;;;;20.83;65.18;101225.91;5055184;28;20032;-75
2023/08/21 09:07:25;;;;;;;0.00;0.00;;;;;;;20.67;65.36;101201.25;5043984;28;20391;-72
2023/08/21 09:09:52;;;;;;;0.00;0.00;;;;;;;20.80;65.48;101215.44;5046955;28;20107;-73
2023/08/21 09:12:18;;;;;;;0.00;0.00;;;;;;;20.91;65.16;101222.38;5057513;28;20028;-73
2023/08/21 09:14:44;;;;;;;0.00;0.00;;;;;;;20.90;65.49;101231.84;5047382;28;20347;-72
2023/08/21 09:17:11;;;;;;;0.00;0.00;;;;;;;21.00;65.55;101223.25;5051278;28;20109;-72
2023/08/21 09:19:37;;;;;;;0.00;0.00;;;;;;;21.13;65.27;101226.25;5043094;28;20032;-72
2023/08/21 09:22:14;;;;;;;0.00;0.00;;;;;;;21.10;65.19;101231.31;5012315;28;20036;-74
2023/08/21 09:24:56;;;;;;;0.00;0.00;;;;;;;21.19;64.88;101219.44;5038646;28;20027;-72
2023/08/21 09:27:21;;;;;;;0.00;0.00;;;;;;;21.23;64.79;101237.09;5040983;28;20021;-73
2023/08/21 09:29:47;;;;;;;0.00;0.00;;;;;;;21.27;63.32;101218.66;4990574;28;20032;-72
2023/08/21 09:32:13;;;;;;;0.00;0.00;;;;;;;21.40;62.87;101228.84;4990819;28;20099;-73
2023/08/21 09:34:38;;;;;;;0.00;0.00;;;;;;;21.77;62.13;101218.41;5039484;28;20040;-71
2023/08/21 09:37:09;;;;;;;0.00;0.00;;;;;;;22.98;59.36;101218.81;5024640;28;20037;-72
2023/08/21 09:39:36;;;;;;;0.00;0.00;;;;;;;23.17;54.80;101212.88;5024151;28;20025;-73
2023/08/21 09:42:08;;;;;;;0.00;0.00;;;;;;;23.10;55.61;101217.28;5027244;28;20682;-72
2023/08/21 09:44:44;;;;;;;0.00;0.00;;;;;;;22.76;55.69;101221.78;5006566;28;20033;-71
2023/08/21 09:47:11;;;;;;;0.00;0.00;;;;;;;24.04;55.22;101216.44;5024921;28;20056;-73
2023/08/21 09:49:39;;;;;;;0.00;0.00;;;;;;;25.08;50.81;101230.69;5041355;28;20029;-73
2023/08/21 09:52:11;;;;;;;0.00;0.00;;;;;;;24.91;51.36;101229.72;5046231;28;20031;-74
2023/08/21 09:55:03;;;;;;;0.00;0.00;;;;;;;25.63;49.56;101222.16;5028410;28;20032;-74
2023/08/21 09:57:35;;;;;;;0.00;0.00;;;;;;;26.76;47.63;101208.44;5033516;28;20472;-75
2023/08/21 10:00:06;;;;;;;0.00;0.00;;;;;;;29.09;42.55;101229.16;5021704;28;20029;-75
2023/08/21 10:02:49;;;;;;;;;;;;;;;;;;;;;
2023/08/21 10:05:16;;;;;;;0.00;0.00;;;;;;;36.38;30.53;101206.97;5014519;28;20487;-79
2023/08/21 10:07:55;;;;;;;0.00;0.00;;;;;;;38.22;26.49;101216.22;5014396;28;20017;-74
2023/08/21 10:10:21;;;;;;;0.00;0.00;;;;;;;36.06;28.36;101206.09;5039170;28;20095;-75
2023/08/21 10:12:48;;;;;;;0.00;0.00;;;;;;;33.79;31.32;101199.00;5027055;28;20029;-74
2023/08/21 10:15:14;;;;;;;0.00;0.00;;;;;;;33.27;32.88;101204.25;5035188;28;20113;-72
2023/08/21 10:17:39;;;;;;;0.00;0.00;;;;;;;33.42;32.81;101194.53;5016339;28;20663;-74
2023/08/21 10:20:07;;;;;;;0.00;0.00;;;;;;;32.17;32.89;101198.66;5037964;28;20474;-74
2023/08/21 10:22:39;;;;;;;0.00;0.00;;;;;;;29.85;36.48;101202.31;5037926;28;20037;-74
2023/08/21 10:25:14;;;;;;;0.00;0.00;;;;;;;30.51;36.97;101193.53;5046464;28;20052;-73
2023/08/21 10:27:45;;;;;;;0.00;0.00;;;;;;;31.28;36.35;101199.59;5005276;28;20017;-73
2023/08/21 10:30:13;;;;;;;0.00;0.00;;;;;;;32.99;33.56;101191.66;5041839;28;20472;-74
2023/08/21 10:32:45;;;;;;;0.00;0.00;;;;;;;34.41;31.56;101191.09;5015532;28;20388;-73
2023/08/21 10:35:16;;;;;;;0.00;0.00;;;;;;;34.85;30.88;101186.81;5014177;28;20045;-73
2023/08/21 10:38:18;;;;;;;0.00;0.00;;;;;;;34.90;29.11;101189.22;5033103;28;20057;-73
2023/08/21 10:41:06;;;;;;;0.00;0.00;;;;;;;32.04;32.40;101181.19;4979248;28;20033;-75
2023/08/21 10:44:00;;;;;;;0.00;0.00;;;;;;;30.18;35.98;101172.53;5016478;28;20017;-75
2023/08/21 10:46:25;;;;;;;0.00;0.00;;;;;;;29.10;37.76;101168.81;5014310;28;20029;-73
2023/08/21 10:48:51;;;;;;;0.00;0.00;;;;;;;28.51;38.71;101160.47;4999518;28;20380;-73
2023/08/21 10:51:17;;;;;;;0.00;0.00;;;;;;;29.01;38.57;101157.81;5025039;28;20512;-74
2023/08/21 10:53:42;;;;;;;0.00;0.00;;;;;;;29.45;37.38;101169.84;5036709;28;20036;-73
2023/08/21 10:56:08;;;;;;;0.00;0.00;;;;;;;28.65;37.85;101162.81;5026085;28;20032;-74
2023/08/21 10:58:43;;;;;;;0.00;0.00;;;;;;;28.41;38.77;101144.22;5017441;28;20028;-77
2023/08/21 11:01:09;;;;;;;0.00;0.00;;;;;;;30.96;36.80;101180.31;5011980;28;20087;-74
2023/08/21 11:03:39;;;;;;;0.00;0.00;;;;;;;31.28;34.85;101169.34;5004164;28;20064;-74
2023/08/21 11:06:06;;;;;;;0.00;0.00;;;;;;;30.21;36.51;101174.59;5020434;28;20071;-74
2023/08/21 11:08:33;;;;;;;0.00;0.00;;;;;;;29.34;37.62;101172.50;5039835;28;20017;-73
2023/08/21 11:11:00;;;;;;;0.00;0.00;;;;;;;29.13;38.90;101167.28;5020117;28;20029;-74
2023/08/21 11:13:25;;;;;;;0.00;0.00;;;;;;;30.48;36.62;101174.56;5025528;28;20032;-74
2023/08/21 11:16:05;;;;;;;0.00;0.00;;;;;;;29.67;36.27;101168.16;5008931;28;20033;-73
2023/08/21 11:18:40;;;;;;;0.00;0.00;;;;;;;29.03;37.78;101163.91;5027101;28;20025;-73
2023/08/21 11:21:09;;;;;;;0.00;0.00;;;;;;;29.03;38.51;101163.06;5027226;28;20646;-73
2023/08/21 11:23:42;;;;;;;0.00;0.00;;;;;;;28.31;39.71;101151.25;5028415;28;20740;-73
2023/08/21 11:26:11;;;;;;;0.00;0.00;;;;;;;28.43;39.12;101147.47;5041465;28;20018;-75
2023/08/21 11:28:38;;;;;;;0.00;0.00;;;;;;;30.35;37.88;101152.19;5037892;28;20017;-73